createdAt,value
2023-03-17T00:02:37.008Z,23.90
2023-03-17T00:06:36.922Z,23.87
2023-03-17T00:10:36.892Z,23.90
2023-03-17T00:14:36.826Z,23.91
2023-03-17T00:18:36.792Z,23.91
2023-03-17T00:22:36.773Z,23.90
2023-03-17T00:26:36.876Z,23.87
2023-03-17T00:30:37.142Z,23.88
2023-03-17T00:34:37.301Z,23.91
2023-03-17T00:38:37.618Z,23.88
2023-03-17T00:42:37.755Z,23.87
2023-03-17T00:46:38.263Z,23.88
2023-03-17T00:50:38.141Z,23.84
2023-03-17T00:54:38.116Z,23.84
2023-03-17T00:58:38.094Z,23.87
2023-03-17T01:02:38.053Z,23.84
2023-03-17T01:06:38.012Z,23.84
2023-03-17T01:10:37.967Z,23.84
2023-03-17T01:14:38.183Z,23.83
2023-03-17T01:18:37.994Z,23.83
2023-03-17T01:22:37.877Z,23.81
2023-03-17T01:26:37.848Z,23.81
2023-03-17T01:30:37.823Z,23.79
2023-03-17T01:34:37.799Z,23.80
2023-03-17T01:38:37.784Z,23.77
2023-03-17T01:42:37.684Z,23.76
2023-03-17T01:46:37.663Z,23.79
2023-03-17T01:50:37.627Z,23.81
2023-03-17T01:54:37.611Z,23.81
2023-03-17T01:58:37.578Z,23.79
2023-03-17T02:02:37.517Z,23.80
2023-03-17T02:06:47.472Z,23.76
2023-03-17T02:10:38.473Z,23.77
2023-03-17T02:14:38.039Z,23.79
2023-03-17T02:18:37.432Z,23.76
2023-03-17T02:22:37.403Z,23.79
2023-03-17T02:26:37.377Z,23.76
2023-03-17T02:30:37.355Z,23.74
2023-03-17T02:34:37.309Z,23.77
2023-03-17T02:38:37.260Z,23.74
2023-03-17T02:42:37.240Z,23.77
2023-03-17T02:46:37.238Z,23.77
2023-03-17T02:50:37.186Z,23.79
2023-03-17T02:54:37.245Z,23.76
2023-03-17T02:58:37.198Z,23.77
2023-03-17T03:02:37.167Z,23.76
2023-03-17T03:06:37.109Z,23.79
2023-03-17T03:10:37.074Z,23.76
2023-03-17T03:14:37.057Z,23.76
2023-03-17T03:18:37.017Z,23.76
2023-03-17T03:22:37.112Z,23.73
2023-03-17T03:26:36.963Z,23.74
2023-03-17T03:30:36.906Z,23.76
2023-03-17T03:34:37.056Z,23.74
2023-03-17T03:38:37.052Z,23.73
2023-03-17T03:42:36.995Z,23.74
2023-03-17T03:46:37.052Z,23.71
2023-03-17T03:50:36.954Z,23.71
2023-03-17T03:54:36.879Z,23.70
2023-03-17T03:58:37.085Z,23.70
2023-03-17T04:02:36.876Z,23.69
2023-03-17T04:06:36.757Z,23.70
2023-03-17T04:10:36.732Z,23.70
2023-03-17T04:14:36.704Z,23.70
2023-03-17T04:18:36.928Z,23.69
2023-03-17T04:22:36.957Z,23.71
2023-03-17T04:26:37.194Z,23.70
2023-03-17T04:30:37.343Z,23.69
2023-03-17T04:34:37.545Z,23.69
2023-03-17T04:38:37.533Z,23.67
2023-03-17T04:42:37.635Z,23.69
2023-03-17T04:46:37.464Z,23.69
2023-03-17T04:50:37.378Z,23.69
2023-03-17T04:54:37.408Z,23.73
2023-03-17T04:58:37.382Z,23.81
2023-03-17T05:02:37.278Z,23.87
2023-03-17T05:06:37.244Z,23.93
2023-03-17T05:10:37.233Z,23.99
2023-03-17T05:14:37.258Z,24.00
2023-03-17T05:18:37.189Z,24.03
2023-03-17T05:22:37.121Z,24.07
2023-03-17T05:26:37.091Z,24.10
2023-03-17T05:30:37.086Z,24.14
2023-03-17T05:34:37.021Z,24.15
2023-03-17T05:38:36.992Z,24.20
2023-03-17T05:42:36.970Z,24.23
2023-03-17T05:46:37.010Z,24.25
2023-03-17T05:50:36.956Z,24.30
2023-03-17T05:54:36.985Z,24.30
2023-03-17T05:58:37.163Z,24.34
2023-03-17T06:02:37.422Z,24.35
2023-03-17T06:06:37.620Z,24.37
2023-03-17T06:10:37.805Z,24.37
2023-03-17T06:14:38.036Z,24.44
2023-03-17T06:18:38.199Z,24.45
2023-03-17T06:22:46.272Z,24.50
2023-03-17T06:26:39.661Z,24.54
2023-03-17T06:30:40.614Z,24.65
2023-03-17T06:34:38.544Z,24.62
2023-03-17T06:38:39.361Z,24.71
2023-03-17T06:42:38.315Z,24.86
2023-03-17T06:46:38.314Z,25.01
2023-03-17T06:50:38.212Z,25.06
2023-03-17T06:54:38.218Z,24.93
2023-03-17T06:58:38.271Z,24.92
2023-03-17T07:02:38.762Z,24.67
2023-03-17T07:06:38.014Z,24.51
2023-03-17T07:10:38.452Z,24.42
2023-03-17T07:14:38.263Z,24.18
2023-03-17T07:18:38.071Z,24.04
2023-03-17T07:22:38.120Z,23.99
2023-03-17T07:26:37.986Z,23.96
2023-03-17T07:30:38.827Z,24.01
2023-03-17T07:34:38.396Z,24.01
2023-03-17T07:38:38.406Z,24.14
2023-03-17T07:42:38.341Z,24.08
2023-03-17T07:46:38.247Z,23.99
2023-03-17T07:50:38.443Z,23.84
2023-03-17T07:54:38.689Z,23.81
2023-03-17T07:58:38.804Z,23.74
2023-03-17T08:02:38.324Z,23.73
2023-03-17T08:06:38.032Z,23.73
2023-03-17T08:10:38.200Z,23.80
2023-03-17T08:14:38.014Z,23.84
2023-03-17T08:18:37.951Z,23.94
2023-03-17T08:22:38.009Z,24.01
2023-03-17T08:26:38.241Z,24.17
2023-03-17T08:30:39.189Z,24.32
2023-03-17T08:34:38.140Z,24.44
2023-03-17T08:38:38.122Z,24.55
2023-03-17T08:42:38.393Z,24.68
2023-03-17T08:46:37.972Z,24.77
2023-03-17T08:50:37.946Z,24.91
2023-03-17T08:54:37.973Z,25.02
2023-03-17T08:58:37.932Z,25.15
2023-03-17T09:02:40.760Z,25.23
2023-03-17T09:06:38.797Z,25.26
2023-03-17T09:10:37.796Z,25.34
2023-03-17T09:14:43.740Z,25.42
2023-03-17T09:18:38.752Z,25.46
2023-03-17T09:22:37.672Z,25.46
2023-03-17T09:26:38.870Z,25.54
2023-03-17T09:30:38.074Z,25.52
2023-03-17T09:34:38.148Z,25.49
2023-03-17T09:38:38.233Z,25.42
2023-03-17T09:42:38.172Z,25.32
2023-03-17T09:46:38.281Z,25.33
2023-03-17T09:50:38.196Z,25.34
2023-03-17T09:54:38.199Z,25.34
2023-03-17T09:58:38.744Z,25.36
2023-03-17T10:02:38.132Z,25.40
2023-03-17T10:06:38.226Z,25.40
2023-03-17T10:10:38.092Z,25.42
2023-03-17T10:14:38.165Z,25.46
2023-03-17T10:18:38.349Z,25.44
2023-03-17T10:22:38.374Z,25.36
2023-03-17T10:26:38.485Z,25.36
2023-03-17T10:30:39.634Z,25.39
2023-03-17T10:34:39.448Z,25.47
2023-03-17T10:38:39.144Z,25.49
2023-03-17T10:42:39.010Z,25.50
2023-03-17T10:46:39.071Z,25.49
2023-03-17T10:50:38.961Z,25.44
2023-03-17T10:54:39.304Z,25.47
2023-03-17T10:58:39.064Z,25.49
2023-03-17T11:02:38.818Z,25.44
2023-03-17T11:06:38.786Z,25.49
2023-03-17T11:10:38.713Z,25.46
2023-03-17T11:14:38.680Z,25.43
2023-03-17T11:18:38.739Z,25.44
2023-03-17T11:22:38.675Z,25.46
2023-03-17T11:26:38.925Z,25.46
2023-03-17T11:30:38.862Z,25.46
2023-03-17T11:34:39.795Z,25.47
2023-03-17T11:38:38.773Z,25.43
2023-03-17T11:42:38.754Z,25.44
2023-03-17T11:46:38.837Z,25.44
2023-03-17T11:50:38.876Z,25.47
2023-03-17T11:54:38.700Z,25.54
2023-03-17T11:58:38.901Z,25.56
2023-03-17T12:02:38.908Z,25.57
2023-03-17T12:06:38.838Z,25.59
2023-03-17T12:10:38.776Z,25.60
2023-03-17T12:14:38.672Z,25.60
2023-03-17T12:18:38.691Z,25.67
2023-03-17T12:22:38.608Z,25.63
2023-03-17T12:26:38.643Z,25.57
2023-03-17T12:30:38.653Z,25.50
2023-03-17T12:34:38.538Z,25.46
2023-03-17T12:38:38.636Z,25.42
2023-03-17T12:42:38.643Z,25.37
2023-03-17T12:46:38.595Z,25.33
2023-03-17T12:50:38.600Z,25.32
2023-03-17T12:54:38.553Z,25.28
2023-03-17T12:58:38.447Z,25.26
2023-03-17T13:02:38.423Z,25.23
2023-03-17T13:06:38.361Z,25.23
2023-03-17T13:10:38.360Z,25.23
2023-03-17T13:14:38.310Z,25.21
2023-03-17T13:18:38.268Z,25.19
2023-03-17T13:22:38.295Z,25.23
2023-03-17T13:26:38.223Z,25.19
2023-03-17T13:30:38.139Z,25.19
2023-03-17T13:34:38.105Z,25.21
2023-03-17T13:38:38.342Z,25.19
2023-03-17T13:42:38.150Z,25.18
2023-03-17T13:46:38.330Z,25.18
2023-03-17T13:50:38.182Z,25.19
2023-03-17T13:54:38.137Z,25.18
2023-03-17T13:58:38.205Z,25.16
2023-03-17T14:02:38.936Z,25.15
2023-03-17T14:06:38.096Z,25.11
2023-03-17T14:10:38.063Z,25.11
2023-03-17T14:14:38.034Z,25.09
2023-03-17T14:18:38.091Z,25.09
2023-03-17T14:22:38.049Z,25.11
2023-03-17T14:26:38.036Z,25.09
2023-03-17T14:30:37.943Z,25.09
2023-03-17T14:34:37.952Z,25.11
2023-03-17T14:38:37.951Z,25.08
2023-03-17T14:42:37.916Z,25.05
2023-03-17T14:46:38.000Z,25.08
2023-03-17T14:50:37.942Z,25.05
2023-03-17T14:54:37.941Z,25.03
2023-03-17T14:58:37.938Z,24.99
2023-03-17T15:02:38.139Z,25.01
2023-03-17T15:06:38.865Z,24.99
2023-03-17T15:10:38.055Z,25.02
2023-03-17T15:14:38.044Z,24.98
2023-03-17T15:18:38.204Z,24.99
2023-03-17T15:22:38.175Z,24.96
2023-03-17T15:26:38.240Z,24.99
2023-03-17T15:30:47.061Z,24.96
2023-03-17T15:34:39.118Z,24.92
2023-03-17T15:38:38.441Z,24.93
2023-03-17T15:42:38.008Z,24.88
2023-03-17T15:46:38.001Z,24.91
2023-03-17T15:50:37.950Z,24.89
2023-03-17T15:54:37.935Z,24.86
2023-03-17T15:58:37.940Z,24.85
2023-03-17T16:02:37.914Z,24.82
2023-03-17T16:06:37.869Z,24.82
2023-03-17T16:10:37.909Z,24.82
2023-03-17T16:14:37.979Z,24.78
2023-03-17T16:18:38.000Z,24.75
2023-03-17T16:22:38.107Z,24.75
2023-03-17T16:26:38.332Z,24.74
2023-03-17T16:30:38.240Z,24.69
2023-03-17T16:34:38.271Z,24.69
2023-03-17T16:38:38.345Z,24.68
2023-03-17T16:42:38.427Z,24.67
2023-03-17T16:46:38.480Z,24.67
2023-03-17T16:50:38.601Z,24.65
2023-03-17T16:54:38.666Z,24.64
2023-03-17T16:58:38.736Z,24.62
2023-03-17T17:02:38.943Z,24.62
2023-03-17T17:06:38.984Z,24.59
2023-03-17T17:10:39.031Z,24.61
2023-03-17T17:14:39.124Z,24.58
2023-03-17T17:18:39.289Z,24.58
2023-03-17T17:22:39.290Z,24.57
2023-03-17T17:26:39.450Z,24.54
2023-03-17T17:30:39.506Z,24.52
2023-03-17T17:34:39.646Z,24.52
2023-03-17T17:38:39.790Z,24.48
2023-03-17T17:42:39.850Z,24.50
2023-03-17T17:46:40.009Z,24.48
2023-03-17T17:50:40.100Z,24.48
2023-03-17T17:54:40.262Z,24.50
2023-03-17T17:58:40.445Z,24.47
2023-03-17T18:02:40.537Z,24.45
2023-03-17T18:06:40.709Z,24.42
2023-03-17T18:10:40.787Z,24.42
2023-03-17T18:14:40.984Z,24.44
2023-03-17T18:18:41.132Z,24.44
2023-03-17T18:22:41.217Z,24.41
2023-03-17T18:26:41.383Z,24.38
2023-03-17T18:30:42.408Z,24.39
2023-03-17T18:34:41.659Z,24.41
2023-03-17T18:38:41.833Z,24.39
2023-03-17T18:42:42.086Z,24.38
2023-03-17T18:46:42.207Z,24.39
2023-03-17T18:50:44.961Z,24.42
2023-03-17T18:54:42.236Z,24.39
2023-03-17T18:58:42.291Z,24.38
2023-03-17T19:02:42.188Z,24.37
2023-03-17T19:06:42.169Z,24.35
2023-03-17T19:10:42.508Z,24.37
2023-03-17T19:14:42.069Z,24.35
2023-03-17T19:18:42.388Z,24.34
2023-03-17T19:22:42.514Z,24.31
2023-03-17T19:26:42.009Z,24.32
2023-03-17T19:30:41.899Z,24.31
2023-03-17T19:34:41.911Z,24.34
2023-03-17T19:38:41.852Z,24.30
2023-03-17T19:42:41.866Z,24.31
2023-03-17T19:46:42.076Z,24.32
2023-03-17T19:50:42.229Z,24.31
2023-03-17T19:54:42.408Z,24.32
2023-03-17T19:58:42.534Z,24.31
2023-03-17T20:02:42.778Z,24.27
2023-03-17T20:06:42.956Z,24.30
2023-03-17T20:10:43.138Z,24.28
2023-03-17T20:14:43.290Z,24.28
2023-03-17T20:18:43.430Z,24.30
2023-03-17T20:22:43.655Z,24.27
2023-03-17T20:26:43.849Z,24.30
2023-03-17T20:30:44.022Z,24.28
2023-03-17T20:34:44.175Z,24.27
2023-03-17T20:38:44.460Z,24.28
2023-03-17T20:42:44.594Z,24.27
2023-03-17T20:46:44.887Z,24.25
2023-03-17T20:50:45.027Z,24.27
2023-03-17T20:54:45.511Z,24.27
2023-03-17T20:58:45.449Z,24.25
2023-03-17T21:02:45.780Z,24.25
2023-03-17T21:06:45.851Z,24.25
2023-03-17T21:10:46.058Z,24.24
2023-03-17T21:14:46.266Z,24.24
2023-03-17T21:18:46.477Z,24.23
2023-03-17T21:22:47.039Z,24.23
2023-03-17T21:26:46.885Z,24.23
2023-03-17T21:30:47.105Z,24.20
2023-03-17T21:34:47.333Z,24.18
2023-03-17T21:38:47.563Z,24.21
2023-03-17T21:42:47.846Z,24.21
2023-03-17T21:46:48.096Z,24.20
2023-03-17T21:50:47.814Z,24.20
2023-03-17T21:54:47.656Z,24.18
2023-03-17T21:58:47.624Z,24.18
2023-03-17T22:02:47.632Z,24.18
2023-03-17T22:06:47.568Z,24.18
2023-03-17T22:10:47.558Z,24.17
2023-03-17T22:14:47.467Z,24.15
2023-03-17T22:18:47.498Z,24.14
2023-03-17T22:22:47.417Z,24.14
2023-03-17T22:26:47.436Z,24.17
2023-03-17T22:30:47.360Z,24.15
2023-03-17T22:34:47.348Z,24.14
2023-03-17T22:38:47.295Z,24.13
2023-03-17T22:42:47.354Z,24.13
2023-03-17T22:46:47.258Z,24.11
2023-03-17T22:50:47.204Z,24.10
2023-03-17T22:54:47.137Z,24.10
2023-03-17T22:58:48.034Z,24.11
2023-03-17T23:02:47.288Z,24.08
2023-03-17T23:06:47.583Z,24.10
2023-03-17T23:10:47.240Z,24.08
2023-03-17T23:14:47.260Z,24.08
2023-03-17T23:18:47.232Z,24.04
2023-03-17T23:22:47.166Z,24.07
2023-03-17T23:26:47.150Z,24.07
2023-03-17T23:30:47.076Z,24.05
2023-03-17T23:34:47.028Z,24.04
2023-03-17T23:38:47.003Z,24.03
2023-03-17T23:42:47.062Z,24.03
2023-03-17T23:46:46.999Z,24.03
2023-03-17T23:50:46.953Z,24.03
2023-03-17T23:54:46.931Z,24.03
2023-03-17T23:58:46.857Z,24.01
